Time;durP1;ratioP1;P1;durP2;ratioP2;P2;SDS_P1;SDS_P2;PMS_P1;PMS_P2;Temp;Humidity;BMP_temperature;BMP_pressure;BME280_temperature;BME280_humidity;BME280_pressure;Samples;Min_cycle;Max_cycle;Signal;HPM_P1;HPM_P2
2021/05/29 00:01:51;;;;;;;0.20;0.10;;;20.30;52.30;;;;;;4985217;28;20046;-80
2021/05/29 00:04:17;;;;;;;0.77;0.20;;;20.30;52.20;;;;;;4976941;28;20034;-80
2021/05/29 00:06:43;;;;;;;0.30;0.10;;;20.20;52.30;;;;;;5022946;28;20484;-78
2021/05/29 00:09:09;;;;;;;0.47;0.20;;;20.20;52.40;;;;;;4980524;28;20038;-80
2021/05/29 00:11:35;;;;;;;0.20;0.00;;;20.10;52.40;;;;;;4977667;28;20046;-80
2021/05/29 00:14:01;;;;;;;0.60;0.10;;;20.10;52.50;;;;;;4978963;28;20026;-80
2021/05/29 00:16:27;;;;;;;0.30;0.20;;;20.10;52.70;;;;;;4973831;28;20042;-79
2021/05/29 00:18:53;;;;;;;0.20;0.00;;;20.00;52.70;;;;;;4975234;28;20034;-80
2021/05/29 00:21:19;;;;;;;0.88;0.28;;;20.00;52.90;;;;;;4974481;28;20400;-79
2021/05/29 00:23:45;;;;;;;0.43;0.10;;;19.90;53.00;;;;;;4973205;28;20031;-80
2021/05/29 00:26:12;;;;;;;0.30;0.10;;;19.80;53.10;;;;;;4972565;28;20082;-79
2021/05/29 00:28:38;;;;;;;0.75;0.20;;;19.70;53.20;;;;;;4973468;28;20051;-79
2021/05/29 00:31:04;;;;;;;0.60;0.25;;;19.60;53.30;;;;;;4982281;28;20475;-79
2021/05/29 00:33:30;;;;;;;0.50;0.10;;;19.60;53.40;;;;;;4988882;28;20050;-80
2021/05/29 00:35:56;;;;;;;1.20;0.32;;;19.50;53.50;;;;;;4982930;28;20140;-80
2021/05/29 00:38:22;;;;;;;0.15;0.10;;;19.50;53.60;;;;;;4977717;28;20030;-80
2021/05/29 00:40:48;;;;;;;1.15;0.28;;;19.40;53.60;;;;;;4981846;28;20023;-80
2021/05/29 00:43:14;;;;;;;0.73;0.30;;;19.40;53.70;;;;;;4975316;28;20392;-79
2021/05/29 00:45:40;;;;;;;0.22;0.10;;;19.40;53.80;;;;;;4977354;28;20051;-80
2021/05/29 00:48:07;;;;;;;0.82;0.22;;;19.40;53.80;;;;;;4972537;28;20034;-80
2021/05/29 00:50:33;;;;;;;0.68;0.10;;;19.40;53.80;;;;;;4972997;28;20027;-80
2021/05/29 00:52:59;;;;;;;0.90;0.15;;;19.40;53.80;;;;;;4972941;28;20403;-80
2021/05/29 00:55:25;;;;;;;2.35;0.40;;;19.40;53.80;;;;;;4973848;28;20027;-80
2021/05/29 00:57:52;;;;;;;0.57;0.30;;;19.40;53.90;;;;;;4989669;28;20482;-80
2021/05/29 01:00:20;;;;;;;0.52;0.10;;;19.30;54.00;;;;;;4972355;28;20035;-80
2021/05/29 01:02:47;;;;;;;0.45;0.17;;;19.30;54.00;;;;;;4988731;28;20038;-79
2021/05/29 01:05:13;;;;;;;0.15;0.10;;;19.30;54.10;;;;;;4972484;28;20031;-80
2021/05/29 01:07:39;;;;;;;0.77;0.22;;;19.20;54.10;;;;;;4973784;28;20043;-80
2021/05/29 01:10:07;;;;;;;1.65;0.30;;;19.20;54.20;;;;;;4972011;28;20034;-80
2021/05/29 01:12:33;;;;;;;6.38;0.20;;;19.10;54.30;;;;;;4988878;28;20365;-78
2021/05/29 01:15:00;;;;;;;0.30;0.10;;;19.10;54.30;;;;;;4956171;28;20034;-79
2021/05/29 01:17:30;;;;;;;1.33;0.38;;;19.10;54.40;;;;;;4984425;28;20039;-79
2021/05/29 01:19:56;;;;;;;0.70;0.30;;;19.10;54.40;;;;;;4968610;28;20042;-80
2021/05/29 01:22:43;;;;;;;0.60;0.22;;;19.00;54.40;;;;;;4975772;28;20027;-80
2021/05/29 01:25:17;;;;;;;1.67;0.43;;;19.00;54.60;;;;;;4986844;28;20041;-79
2021/05/29 01:27:44;;;;;;;0.95;0.35;;;18.90;54.60;;;;;;5007219;28;20381;-80
2021/05/29 01:30:10;;;;;;;1.50;0.30;;;18.90;54.60;;;;;;5008270;28;20037;-79
2021/05/29 01:32:36;;;;;;;0.32;0.15;;;18.90;54.60;;;;;;4971580;28;20469;-79
2021/05/29 01:35:05;;;;;;;0.55;0.20;;;18.90;54.70;;;;;;4971977;28;20038;-80
2021/05/29 01:37:31;;;;;;;0.60;0.30;;;18.90;54.70;;;;;;4972063;28;20046;-79
2021/05/29 01:39:57;;;;;;;1.83;0.38;;;18.90;54.80;;;;;;4972355;28;20039;-79
2021/05/29 01:42:25;;;;;;;0.60;0.30;;;18.80;54.90;;;;;;4972822;28;20043;-79
2021/05/29 01:44:52;;;;;;;1.20;0.15;;;18.80;55.00;;;;;;4972015;28;20496;-77
2021/05/29 01:47:18;;;;;;;0.73;0.10;;;18.70;55.10;;;;;;4984254;28;20058;-79
2021/05/29 01:49:44;;;;;;;0.68;0.22;;;18.70;55.10;;;;;;4981932;28;20038;-79
2021/05/29 01:52:10;;;;;;;2.38;0.20;;;18.60;55.20;;;;;;4975989;28;20026;-79
2021/05/29 01:54:36;;;;;;;0.35;0.00;;;18.60;55.40;;;;;;4977002;28;20027;-79
2021/05/29 01:57:02;;;;;;;0.88;0.30;;;18.50;55.40;;;;;;4977418;28;20030;-79
2021/05/29 01:59:28;;;;;;;0.40;0.20;;;18.50;55.60;;;;;;4975940;28;20398;-79
2021/05/29 02:01:54;;;;;;;0.90;0.20;;;18.40;55.60;;;;;;4969753;28;20035;-78
2021/05/29 02:04:20;;;;;;;0.38;0.30;;;18.40;55.80;;;;;;4966618;28;20945;-79
2021/05/29 02:06:46;;;;;;;0.45;0.15;;;18.40;55.80;;;;;;4965940;28;20042;-77
2021/05/29 02:09:12;;;;;;;0.47;0.20;;;18.30;55.80;;;;;;4970137;28;20035;-79
2021/05/29 02:11:39;;;;;;;1.58;0.15;;;18.30;55.90;;;;;;4967842;28;20030;-77
2021/05/29 02:14:05;;;;;;;0.17;0.00;;;18.30;56.10;;;;;;4983540;28;20027;-79
2021/05/29 02:16:31;;;;;;;1.33;0.28;;;18.20;56.20;;;;;;4969063;28;20384;-79
2021/05/29 02:18:57;;;;;;;0.57;0.25;;;18.20;56.30;;;;;;4971266;28;20038;-79
2021/05/29 02:21:23;;;;;;;0.82;0.20;;;18.10;56.30;;;;;;4967802;28;20042;-77
2021/05/29 02:23:50;;;;;;;3.20;0.22;;;18.20;56.40;;;;;;4974598;28;20063;-80
2021/05/29 02:26:20;;;;;;;0.30;0.10;;;18.10;56.50;;;;;;4986758;28;20042;-78
2021/05/29 02:28:49;;;;;;;1.05;0.22;;;18.10;56.60;;;;;;4973516;28;20046;-79
2021/05/29 02:31:15;;;;;;;0.65;0.10;;;18.00;56.70;;;;;;4973025;28;20038;-79
2021/05/29 02:33:42;;;;;;;0.75;0.25;;;18.00;56.80;;;;;;4987931;28;20050;-79
2021/05/29 02:36:08;;;;;;;0.52;0.22;;;18.00;56.90;;;;;;4971726;28;20081;-79
2021/05/29 02:38:35;;;;;;;0.70;0.20;;;17.90;56.90;;;;;;4975245;28;20038;-82
2021/05/29 02:41:05;;;;;;;0.60;0.10;;;17.90;57.10;;;;;;4972742;28;20384;-84
2021/05/29 02:43:31;;;;;;;0.25;0.10;;;17.80;57.20;;;;;;4976423;28;20026;-84
2021/05/29 02:45:57;;;;;;;0.52;0.20;;;17.80;57.30;;;;;;4983775;28;20500;-84
2021/05/29 02:48:24;;;;;;;1.85;0.20;;;17.70;57.30;;;;;;4981155;28;20034;-81
2021/05/29 02:50:50;;;;;;;0.20;0.05;;;17.70;57.30;;;;;;4981091;28;20038;-83
2021/05/29 02:53:16;;;;;;;0.17;0.10;;;17.70;57.50;;;;;;4980785;28;20026;-83
2021/05/29 02:55:42;;;;;;;2.15;1.00;;;17.60;57.50;;;;;;4975675;28;20039;-83
2021/05/29 02:58:08;;;;;;;2.42;0.50;;;17.60;57.60;;;;;;4979143;28;20034;-81
2021/05/29 03:00:35;;;;;;;0.68;0.30;;;17.60;57.70;;;;;;4988458;28;20042;-84
2021/05/29 03:03:03;;;;;;;0.30;0.10;;;17.60;57.80;;;;;;4982706;28;20031;-83
2021/05/29 03:05:29;;;;;;;0.28;0.08;;;17.50;57.80;;;;;;4980039;28;20058;-78
2021/05/29 03:07:55;;;;;;;0.52;0.10;;;17.50;57.80;;;;;;4978452;28;20049;-86
2021/05/29 03:10:22;;;;;;;0.35;0.17;;;17.50;57.90;;;;;;4985724;28;20130;-85
2021/05/29 03:12:48;;;;;;;1.50;0.45;;;17.50;58.00;;;;;;4980878;28;20034;-85
2021/05/29 03:15:20;;;;;;;0.13;0.03;;;17.40;58.10;;;;;;4959487;28;20043;-86
2021/05/29 03:17:46;;;;;;;0.10;0.03;;;17.30;58.20;;;;;;4971317;28;20027;-93
2021/05/29 03:20:15;;;;;;;0.77;0.25;;;17.30;58.40;;;;;;4975019;28;20480;-87
2021/05/29 03:22:41;;;;;;;0.38;0.10;;;17.30;58.60;;;;;;4976272;28;20018;-91
2021/05/29 03:25:08;;;;;;;0.40;0.13;;;17.30;58.60;;;;;;4977098;28;20035;-92
2021/05/29 03:27:34;;;;;;;0.60;0.10;;;17.40;58.50;;;;;;4976501;28;20027;-92
2021/05/29 03:30:01;;;;;;;1.50;0.40;;;17.50;58.30;;;;;;4977975;28;20041;-93
2021/05/29 03:32:27;;;;;;;1.33;0.30;;;17.50;58.20;;;;;;4977240;28;20050;-92
2021/05/29 03:34:53;;;;;;;0.55;0.20;;;17.60;58.20;;;;;;4984345;28;20037;-90
2021/05/29 03:37:19;;;;;;;0.13;0.00;;;17.60;58.10;;;;;;4961174;28;20041;-94
2021/05/29 03:39:45;;;;;;;0.43;0.10;;;17.60;58.00;;;;;;4976980;28;20432;-85
2021/05/29 03:42:11;;;;;;;0.28;0.00;;;17.60;58.00;;;;;;4975163;28;20035;-85
2021/05/29 03:44:37;;;;;;;0.77;0.20;;;17.60;58.00;;;;;;4975248;28;20046;-85
2021/05/29 03:47:03;;;;;;;0.22;0.10;;;17.60;58.00;;;;;;4987293;28;20389;-85
2021/05/29 03:49:30;;;;;;;0.65;0.20;;;17.60;58.10;;;;;;4974136;28;20038;-85
2021/05/29 03:51:56;;;;;;;0.60;0.28;;;17.50;58.20;;;;;;4976144;28;20039;-85
2021/05/29 03:54:22;;;;;;;0.45;0.10;;;17.50;58.20;;;;;;5010274;28;20395;-85
2021/05/29 03:56:48;;;;;;;0.20;0.10;;;17.50;58.30;;;;;;5011065;28;20238;-85
2021/05/29 03:59:15;;;;;;;0.30;0.10;;;17.40;58.20;;;;;;5010883;28;20387;-85
2021/05/29 04:01:42;;;;;;;0.65;0.43;;;17.40;58.20;;;;;;4974066;28;20042;-85
2021/05/29 04:04:08;;;;;;;0.47;0.20;;;17.40;58.20;;;;;;4975262;28;20034;-85
2021/05/29 04:06:34;;;;;;;0.57;0.13;;;17.50;58.20;;;;;;4974516;28;20387;-85
2021/05/29 04:09:02;;;;;;;1.85;0.10;;;17.50;58.10;;;;;;4973852;28;20047;-85
2021/05/29 04:11:28;;;;;;;0.38;0.20;;;17.40;58.10;;;;;;4990135;28;20038;-85
2021/05/29 04:13:54;;;;;;;1.20;0.30;;;17.50;58.10;;;;;;4975321;28;20046;-85
2021/05/29 04:16:21;;;;;;;0.30;0.10;;;17.40;58.10;;;;;;4982898;28;20035;-83
2021/05/29 04:18:47;;;;;;;0.43;0.20;;;17.40;58.10;;;;;;5010772;28;20031;-85
2021/05/29 04:21:13;;;;;;;2.10;0.30;;;17.40;58.20;;;;;;4994279;28;20041;-83
2021/05/29 04:23:39;;;;;;;0.95;0.20;;;17.40;58.20;;;;;;4994101;28;20034;-85
2021/05/29 04:26:07;;;;;;;0.40;0.10;;;17.30;58.20;;;;;;5010414;28;20494;-85
2021/05/29 04:28:34;;;;;;;0.73;0.20;;;17.30;58.20;;;;;;4973568;28;20043;-85
2021/05/29 04:31:00;;;;;;;0.47;0.10;;;17.30;58.30;;;;;;4994038;28;20038;-85
2021/05/29 04:33:27;;;;;;;0.90;0.38;;;17.30;58.20;;;;;;4989434;28;20483;-85
2021/05/29 04:35:53;;;;;;;0.40;0.10;;;17.30;58.20;;;;;;4954432;28;20050;-84
2021/05/29 04:38:19;;;;;;;0.10;0.10;;;17.30;58.20;;;;;;4964284;28;20043;-84
2021/05/29 04:40:45;;;;;;;2.30;0.45;;;17.30;58.20;;;;;;4973543;28;20041;-85
2021/05/29 04:43:11;;;;;;;0.45;0.15;;;17.30;58.20;;;;;;4973642;28;20034;-84
2021/05/29 04:45:37;;;;;;;0.52;0.25;;;17.30;58.30;;;;;;4988796;28;20522;-85
2021/05/29 04:48:04;;;;;;;0.25;0.10;;;17.30;58.30;;;;;;4974051;28;20481;-85
2021/05/29 04:50:30;;;;;;;0.13;0.03;;;17.30;58.30;;;;;;4973364;28;20037;-86
2021/05/29 04:52:57;;;;;;;0.68;0.20;;;17.30;58.40;;;;;;4973222;28;20026;-84
2021/05/29 04:55:23;;;;;;;0.10;0.03;;;17.30;58.40;;;;;;4974416;28;20373;-84
2021/05/29 04:57:49;;;;;;;0.03;0.00;;;17.20;58.40;;;;;;4989904;28;20050;-85
2021/05/29 05:00:16;;;;;;;0.17;0.03;;;17.20;58.50;;;;;;4988234;28;20427;-83
2021/05/29 05:02:42;;;;;;;0.10;0.00;;;17.20;58.60;;;;;;4973017;28;20026;-85
2021/05/29 05:05:08;;;;;;;0.40;0.10;;;17.20;58.50;;;;;;4989186;28;20035;-85
2021/05/29 05:07:35;;;;;;;0.10;0.00;;;17.30;58.50;;;;;;4973260;28;20046;-85
2021/05/29 05:10:01;;;;;;;0.47;0.20;;;17.30;58.40;;;;;;5001745;28;20051;-86
2021/05/29 05:12:27;;;;;;;0.75;0.38;;;17.30;58.40;;;;;;4988775;28;20038;-85
2021/05/29 05:14:53;;;;;;;0.57;0.10;;;17.30;58.50;;;;;;4972605;28;20061;-85
2021/05/29 05:17:19;;;;;;;0.40;0.20;;;17.30;58.60;;;;;;4973406;28;20038;-84
2021/05/29 05:19:45;;;;;;;3.10;0.52;;;17.30;58.60;;;;;;4972603;28;20066;-85
2021/05/29 05:22:11;;;;;;;0.32;0.05;;;17.30;58.60;;;;;;4972883;28;20039;-83
2021/05/29 05:24:37;;;;;;;0.98;0.10;;;17.30;58.70;;;;;;4973118;28;20038;-85
2021/05/29 05:27:04;;;;;;;0.15;0.00;;;17.20;58.60;;;;;;4988702;28;20042;-84
2021/05/29 05:29:30;;;;;;;1.20;0.47;;;17.20;58.70;;;;;;4988340;28;20043;-85
2021/05/29 05:31:56;;;;;;;0.45;0.00;;;17.20;58.80;;;;;;4983226;28;20110;-84
2021/05/29 05:34:22;;;;;;;0.28;0.00;;;17.20;58.80;;;;;;4975068;28;20038;-85
2021/05/29 05:36:48;;;;;;;0.10;0.10;;;17.20;58.80;;;;;;5009931;28;20034;-84
2021/05/29 05:39:14;;;;;;;0.10;0.00;;;17.20;58.90;;;;;;4978007;28;20100;-85
2021/05/29 05:41:41;;;;;;;0.90;0.20;;;17.20;58.90;;;;;;4976603;28;20037;-85
2021/05/29 05:44:07;;;;;;;0.85;0.13;;;17.20;58.90;;;;;;4977176;28;20026;-84
2021/05/29 05:46:34;;;;;;;0.30;0.13;;;17.20;59.00;;;;;;4971956;28;20039;-86
2021/05/29 05:49:00;;;;;;;0.65;0.28;;;17.30;58.90;;;;;;4988721;28;20035;-85
2021/05/29 05:51:30;;;;;;;0.82;0.20;;;17.50;58.70;;;;;;4972342;28;20506;-85
2021/05/29 05:53:56;;;;;;;0.40;0.10;;;17.70;58.40;;;;;;4971999;28;20042;-84
2021/05/29 05:56:25;;;;;;;0.57;0.10;;;18.10;58.10;;;;;;4971634;28;20046;-85
2021/05/29 05:58:53;;;;;;;1.25;0.40;;;18.40;57.70;;;;;;4971936;28;20030;-85
2021/05/29 06:01:19;;;;;;;0.30;0.10;;;18.60;57.30;;;;;;4980022;28;20050;-84
2021/05/29 06:03:45;;;;;;;0.40;0.10;;;18.80;57.10;;;;;;4978383;28;20377;-85
2021/05/29 06:06:11;;;;;;;0.32;0.05;;;18.80;57.00;;;;;;4976190;28;20042;-85
2021/05/29 06:08:37;;;;;;;0.40;0.00;;;18.90;57.10;;;;;;4976125;28;20391;-85
2021/05/29 06:11:04;;;;;;;0.25;0.03;;;18.90;56.90;;;;;;4977087;28;20034;-84
2021/05/29 06:17:57;;;;;;;0.50;0.10;;;19.00;56.90;;;;;;4955971;28;20054;-85
2021/05/29 06:22:02;;;;;;;0.50;0.20;;;19.40;56.40;;;;;;4980233;28;20047;-85
2021/05/29 06:24:28;;;;;;;0.28;0.10;;;19.60;56.20;;;;;;4937237;28;20039;-85
2021/05/29 06:26:55;;;;;;;0.20;0.05;;;19.70;56.10;;;;;;4937462;29;20042;-84
2021/05/29 06:29:22;;;;;;;1.08;0.10;;;19.70;55.90;;;;;;4952857;28;20042;-85
2021/05/29 06:31:48;;;;;;;0.38;0.00;;;19.80;56.40;;;;;;4918903;29;20047;-84
2021/05/29 06:34:14;;;;;;;0.10;0.00;;;20.00;55.70;;;;;;4935460;29;20100;-85
2021/05/29 06:36:40;;;;;;;0.45;0.10;;;20.30;55.40;;;;;;4949966;29;20058;-84
2021/05/29 06:39:06;;;;;;;0.82;0.00;;;20.40;55.10;;;;;;4950636;29;20054;-85
2021/05/29 06:41:33;;;;;;;0.82;0.13;;;20.50;54.90;;;;;;4948817;29;20031;-85
2021/05/29 06:43:59;;;;;;;0.35;0.10;;;20.50;54.90;;;;;;4948421;29;20043;-84
2021/05/29 06:46:25;;;;;;;0.47;0.10;;;20.50;54.90;;;;;;4941949;28;20417;-84
2021/05/29 06:48:53;;;;;;;3.60;0.28;;;20.60;54.90;;;;;;4972208;28;20043;-85
2021/05/29 06:51:33;;;;;;;0.77;0.08;;;20.70;54.70;;;;;;4968844;28;20043;-85
2021/05/29 06:54:03;;;;;;;5.97;0.10;;;20.80;54.50;;;;;;4954255;28;20433;-85
2021/05/29 06:59:14;;;;;;;0.30;0.20;;;21.00;54.20;;;;;;4977916;28;20027;-85
2021/05/29 07:01:40;;;;;;;0.35;0.05;;;21.00;54.10;;;;;;4950906;28;20497;-85
2021/05/29 07:04:06;;;;;;;0.35;0.00;;;21.00;54.70;;;;;;4953848;29;20035;-84
2021/05/29 07:06:32;;;;;;;0.38;0.10;;;21.00;54.60;;;;;;4984799;28;20473;-86
2021/05/29 07:08:58;;;;;;;1.13;0.30;;;21.00;53.90;;;;;;4955569;28;20055;-86
2021/05/29 07:11:24;;;;;;;1.60;0.28;;;21.00;54.00;;;;;;4956710;28;20036;-83
2021/05/29 07:13:50;;;;;;;0.55;0.20;;;20.90;54.10;;;;;;4955808;29;20027;-86
2021/05/29 07:16:16;;;;;;;1.38;0.45;;;20.90;54.20;;;;;;4974771;28;20034;-86
2021/05/29 07:18:46;;;;;;;0.75;0.15;;;20.90;54.20;;;;;;5012127;28;20436;-85
2021/05/29 07:21:13;;;;;;;0.52;0.10;;;20.80;54.20;;;;;;5010767;28;20456;-85
2021/05/29 07:23:39;;;;;;;1.05;0.20;;;20.80;54.20;;;;;;4980218;28;20512;-86
2021/05/29 07:26:05;;;;;;;0.03;0.00;;;20.90;54.20;;;;;;4978677;28;20193;-86
2021/05/29 07:28:32;;;;;;;0.55;0.30;;;20.90;54.10;;;;;;4974773;28;20030;-85
2021/05/29 07:30:58;;;;;;;0.60;0.10;;;20.90;54.10;;;;;;4995302;28;20031;-86
2021/05/29 07:33:24;;;;;;;1.23;0.30;;;20.90;54.10;;;;;;4990623;28;20027;-85
2021/05/29 07:35:52;;;;;;;0.50;0.20;;;20.80;54.00;;;;;;4974567;28;20037;-86
2021/05/29 07:38:18;;;;;;;0.45;0.20;;;20.80;54.10;;;;;;4990837;28;20031;-87
2021/05/29 07:40:44;;;;;;;2.15;0.43;;;20.80;54.10;;;;;;4974259;28;20031;-82
2021/05/29 07:43:10;;;;;;;0.13;0.00;;;20.70;54.10;;;;;;4976105;28;20042;-85
2021/05/29 07:45:36;;;;;;;0.15;0.10;;;20.70;54.10;;;;;;4978802;28;20495;-84
2021/05/29 07:48:03;;;;;;;0.65;0.35;;;20.70;54.10;;;;;;4982189;28;20038;-85
2021/05/29 07:50:29;;;;;;;0.47;0.10;;;20.70;54.20;;;;;;4978735;28;20380;-85
2021/05/29 07:52:55;;;;;;;0.30;0.10;;;20.70;54.20;;;;;;4977047;28;20099;-85
2021/05/29 07:55:21;;;;;;;1.10;0.20;;;20.70;54.30;;;;;;4975590;28;20042;-85
2021/05/29 07:57:47;;;;;;;0.50;0.20;;;20.70;54.30;;;;;;4980088;28;20033;-86
2021/05/29 08:00:17;;;;;;;2.92;0.22;;;20.70;54.10;;;;;;4978065;28;20365;-85
2021/05/29 08:02:43;;;;;;;0.50;0.22;;;20.70;54.10;;;;;;4957637;28;20031;-85
2021/05/29 08:05:20;;;;;;;0.55;0.20;;;20.80;54.00;;;;;;4975501;28;20037;-86
2021/05/29 08:07:46;;;;;;;0.10;0.08;;;20.90;53.90;;;;;;4974358;28;20488;-86
2021/05/29 08:10:13;;;;;;;0.77;0.40;;;21.00;53.80;;;;;;4957974;28;20056;-86
2021/05/29 08:12:39;;;;;;;0.65;0.10;;;21.00;53.60;;;;;;4990894;28;20027;-86
2021/05/29 08:15:06;;;;;;;1.45;0.35;;;21.10;53.60;;;;;;4973508;28;20030;-85
2021/05/29 08:17:32;;;;;;;0.98;0.28;;;21.20;53.50;;;;;;4989988;28;20031;-86
2021/05/29 08:19:58;;;;;;;1.27;0.35;;;21.30;53.40;;;;;;4989291;28;20386;-86
2021/05/29 08:22:24;;;;;;;0.95;0.15;;;21.30;53.30;;;;;;4973747;28;20035;-85
2021/05/29 08:24:51;;;;;;;0.93;0.13;;;21.40;53.30;;;;;;4990180;28;20061;-86
2021/05/29 08:27:17;;;;;;;0.35;0.00;;;21.40;53.10;;;;;;4974874;28;20053;-84
2021/05/29 08:29:43;;;;;;;0.60;0.10;;;21.50;53.00;;;;;;4974675;28;20043;-85
2021/05/29 08:32:09;;;;;;;1.63;0.30;;;21.60;53.00;;;;;;4985761;28;20507;-86
2021/05/29 08:34:35;;;;;;;0.10;0.00;;;21.70;52.80;;;;;;4973661;28;20031;-85
2021/05/29 08:37:01;;;;;;;0.30;0.13;;;21.90;52.70;;;;;;4978518;28;20384;-86
2021/05/29 08:39:27;;;;;;;0.90;0.10;;;22.00;52.50;;;;;;4977451;28;20396;-85
2021/05/29 08:41:53;;;;;;;0.47;0.30;;;22.10;52.40;;;;;;4977778;28;20034;-86
2021/05/29 08:44:20;;;;;;;0.30;0.05;;;22.20;52.20;;;;;;4977612;28;20034;-85
2021/05/29 08:46:48;;;;;;;1.00;0.13;;;22.40;52.20;;;;;;4972839;28;20031;-86
2021/05/29 08:49:14;;;;;;;0.10;0.03;;;22.40;52.00;;;;;;4973620;28;20472;-86
2021/05/29 08:51:40;;;;;;;0.30;0.00;;;22.60;51.90;;;;;;4989750;28;20030;-86
2021/05/29 08:54:06;;;;;;;0.88;0.10;;;22.80;51.70;;;;;;4989183;28;20035;-86
2021/05/29 08:56:32;;;;;;;0.95;0.10;;;22.90;51.50;;;;;;4989406;28;20023;-86
2021/05/29 08:58:59;;;;;;;0.40;0.10;;;23.00;51.40;;;;;;4973238;28;20035;-86
2021/05/29 09:01:25;;;;;;;1.65;0.43;;;23.10;51.10;;;;;;4965217;28;20047;-86
2021/05/29 09:03:55;;;;;;;0.63;0.10;;;23.20;51.20;;;;;;4994205;28;20050;-86
2021/05/29 09:06:27;;;;;;;0.52;0.17;;;23.30;51.10;;;;;;4978545;28;20038;-86
2021/05/29 09:08:55;;;;;;;0.17;0.08;;;23.30;50.90;;;;;;4977848;28;20396;-84
2021/05/29 09:11:43;;;;;;;0.38;0.15;;;23.30;50.80;;;;;;4977150;28;20034;-86
2021/05/29 09:14:30;;;;;;;0.10;0.00;;;23.30;50.80;;;;;;4978178;28;20018;-85
2021/05/29 09:17:15;;;;;;;0.65;0.17;;;23.20;50.80;;;;;;4973620;28;20035;-86
2021/05/29 09:19:55;;;;;;;0.63;0.20;;;23.20;51.00;;;;;;4990955;28;20050;-86
2021/05/29 09:22:37;;;;;;;0.25;0.00;;;23.20;50.90;;;;;;4973554;28;20380;-86
2021/05/29 09:25:11;;;;;;;0.45;0.20;;;23.40;50.70;;;;;;4985605;28;20042;-86
2021/05/29 09:28:04;;;;;;;0.82;0.28;;;23.60;50.40;;;;;;4988328;28;20381;-84
2021/05/29 09:30:35;;;;;;;0.95;0.20;;;23.80;50.20;;;;;;4975769;28;20050;-87
2021/05/29 09:33:21;;;;;;;0.00;0.00;;;23.80;50.00;;;;;;4980739;28;20499;-86
2021/05/29 09:35:59;;;;;;;0.32;0.10;;;24.00;49.70;;;;;;4976413;28;20495;-86
2021/05/29 09:38:31;;;;;;;0.82;0.00;;;24.00;49.40;;;;;;4976789;28;20034;-87
2021/05/29 09:40:57;;;;;;;0.50;0.10;;;24.20;49.20;;;;;;4975371;28;20094;-86
2021/05/29 09:43:23;;;;;;;2.60;0.68;;;24.40;48.80;;;;;;4973879;28;20031;-86
2021/05/29 09:46:03;;;;;;;1.88;0.10;;;24.60;48.40;;;;;;5009076;28;20047;-86
2021/05/29 09:48:30;;;;;;;0.50;0.20;;;24.60;48.20;;;;;;4972435;28;20026;-85
2021/05/29 09:51:12;;;;;;;0.65;0.10;;;24.60;48.20;;;;;;4988011;28;20111;-86
2021/05/29 09:53:42;;;;;;;0.52;0.20;;;24.60;48.20;;;;;;4988438;28;20023;-85
2021/05/29 09:56:31;;;;;;;0.43;0.22;;;24.50;47.90;;;;;;4972227;28;20035;-85
2021/05/29 09:59:07;;;;;;;0.32;0.00;;;24.50;47.70;;;;;;4972201;28;20388;-86
2021/05/29 10:01:37;;;;;;;6.00;0.08;;;24.40;47.60;;;;;;4971905;28;20043;-86
2021/05/29 10:04:03;;;;;;;0.35;0.10;;;24.40;47.50;;;;;;4985065;28;20484;-86
2021/05/29 10:06:30;;;;;;;0.30;0.05;;;24.30;47.60;;;;;;4973070;28;20026;-86
2021/05/29 10:08:56;;;;;;;1.20;0.10;;;24.30;47.50;;;;;;4971820;28;20042;-86
2021/05/29 10:11:22;;;;;;;0.50;0.13;;;24.30;47.40;;;;;;4971980;28;20034;-86
2021/05/29 10:13:48;;;;;;;0.75;0.13;;;24.30;47.40;;;;;;4973203;28;20089;-86
2021/05/29 10:16:15;;;;;;;0.15;0.00;;;24.30;47.30;;;;;;4964067;28;20026;-86
2021/05/29 10:18:48;;;;;;;0.65;0.10;;;24.30;46.90;;;;;;4977874;28;20423;-87
2021/05/29 10:21:14;;;;;;;0.88;0.10;;;24.30;46.90;;;;;;4975944;28;20038;-86
2021/05/29 10:23:41;;;;;;;0.28;0.10;;;24.40;46.50;;;;;;4976107;28;20027;-86
2021/05/29 10:26:07;;;;;;;0.75;0.20;;;24.50;46.40;;;;;;4976376;28;20029;-86
2021/05/29 10:28:34;;;;;;;0.90;0.20;;;24.60;46.10;;;;;;4971876;28;20398;-86
2021/05/29 10:31:00;;;;;;;0.10;0.00;;;24.70;45.90;;;;;;5008795;28;20046;-86
2021/05/29 10:33:26;;;;;;;0.45;0.10;;;25.00;45.60;;;;;;4987841;28;20023;-86
2021/05/29 10:35:53;;;;;;;0.30;0.20;;;25.00;45.00;;;;;;4972591;28;20045;-87
2021/05/29 10:38:20;;;;;;;0.00;0.00;;;25.00;44.90;;;;;;4973082;28;20014;-86
2021/05/29 10:40:48;;;;;;;0.60;0.15;;;25.00;44.60;;;;;;4971823;28;20031;-86
2021/05/29 10:43:19;;;;;;;0.80;0.20;;;25.10;44.60;;;;;;4957622;28;20038;-86
2021/05/29 10:45:51;;;;;;;;;;;25.20;44.10;;;;;;4976027;28;20046;-86
2021/05/29 10:48:18;;;;;;;0.35;0.13;;;25.30;44.00;;;;;;5007759;28;20291;-86
2021/05/29 10:50:53;;;;;;;5.38;0.22;;;25.30;43.80;;;;;;4991569;28;20050;-84
2021/05/29 10:53:42;;;;;;;0.20;0.00;;;25.40;43.80;;;;;;4991595;28;20396;-84
2021/05/29 10:56:21;;;;;;;0.28;0.10;;;25.50;43.60;;;;;;4959452;28;20377;-86
2021/05/29 10:58:56;;;;;;;0.10;0.00;;;25.40;43.60;;;;;;4976570;28;20034;-87
2021/05/29 11:01:23;;;;;;;0.00;0.00;;;25.50;43.40;;;;;;4967395;28;20487;-86
2021/05/29 11:04:11;;;;;;;0.30;0.10;;;25.60;43.40;;;;;;5012332;28;20035;-85
2021/05/29 11:06:38;;;;;;;0.55;0.22;;;25.70;43.20;;;;;;4980209;28;20027;-87
2021/05/29 11:09:05;;;;;;;0.17;0.00;;;25.90;42.70;;;;;;4979327;28;20031;-86
2021/05/29 11:11:38;;;;;;;0.38;0.00;;;25.90;42.60;;;;;;4979305;28;20038;-87
2021/05/29 11:14:08;;;;;;;0.15;0.00;;;26.00;42.60;;;;;;4980148;28;20022;-85
2021/05/29 11:16:46;;;;;;;0.22;0.00;;;26.10;42.60;;;;;;4991327;28;20047;-88
2021/05/29 11:19:15;;;;;;;0.63;0.22;;;26.20;42.50;;;;;;4973252;28;20049;-87
2021/05/29 11:22:09;;;;;;;0.17;0.10;;;26.20;42.40;;;;;;4976475;28;20503;-86
2021/05/29 11:24:38;;;;;;;0.40;0.10;;;26.10;42.50;;;;;;4972491;28;20047;-86
2021/05/29 11:27:05;;;;;;;0.55;0.15;;;26.00;42.50;;;;;;4975929;28;20041;-86
2021/05/29 11:29:47;;;;;;;0.00;0.00;;;25.90;42.70;;;;;;4974593;28;20061;-86
2021/05/29 11:32:13;;;;;;;0.13;0.00;;;25.70;42.60;;;;;;4986611;28;20026;-85
2021/05/29 11:34:43;;;;;;;1.10;0.22;;;25.50;42.70;;;;;;4975169;28;20041;-86
2021/05/29 11:37:13;;;;;;;0.10;0.00;;;25.40;42.90;;;;;;4978366;28;20042;-86
2021/05/29 11:39:55;;;;;;;0.22;0.03;;;25.40;42.80;;;;;;4979747;28;20484;-87
2021/05/29 11:42:21;;;;;;;0.57;0.15;;;25.40;42.80;;;;;;4962046;28;20089;-87
2021/05/29 11:44:47;;;;;;;0.85;0.10;;;25.30;42.70;;;;;;4978523;28;20047;-86
2021/05/29 11:47:15;;;;;;;0.60;0.08;;;25.30;42.90;;;;;;4973603;28;20472;-86
2021/05/29 11:49:41;;;;;;;0.17;0.10;;;25.20;42.90;;;;;;4974309;28;20045;-85
2021/05/29 11:52:08;;;;;;;0.00;0.00;;;25.20;42.90;;;;;;4974645;28;20042;-86
2021/05/29 11:54:35;;;;;;;0.15;0.10;;;25.20;42.90;;;;;;4974362;28;20030;-86
2021/05/29 11:57:02;;;;;;;0.10;0.00;;;25.10;42.80;;;;;;4958514;28;20504;-85
2021/05/29 11:59:28;;;;;;;0.73;0.22;;;25.10;42.90;;;;;;4974196;28;20046;-86
2021/05/29 12:01:55;;;;;;;0.47;0.13;;;25.00;42.80;;;;;;4985523;28;20042;-86
2021/05/29 12:04:25;;;;;;;0.00;0.00;;;24.90;42.80;;;;;;4975749;28;20027;-85
2021/05/29 12:06:58;;;;;;;0.82;0.20;;;24.90;42.70;;;;;;4995003;28;20035;-86
2021/05/29 12:09:42;;;;;;;0.20;0.05;;;24.90;42.80;;;;;;4993590;28;20396;-86
2021/05/29 12:12:10;;;;;;;0.85;0.40;;;24.80;42.80;;;;;;5010644;28;20399;-86
2021/05/29 12:14:37;;;;;;;0.15;0.00;;;24.80;42.90;;;;;;4979493;28;20035;-86
2021/05/29 12:17:05;;;;;;;1.00;0.20;;;24.80;43.00;;;;;;4973172;28;20472;-86
2021/05/29 12:19:38;;;;;;;0.82;0.22;;;24.70;43.00;;;;;;4957900;28;20388;-85
2021/05/29 12:22:17;;;;;;;5.38;0.03;;;24.60;43.10;;;;;;4986870;28;20027;-85
2021/05/29 12:24:44;;;;;;;0.20;0.10;;;24.60;43.30;;;;;;4974091;28;20058;-87
2021/05/29 12:27:14;;;;;;;0.20;0.10;;;24.60;43.40;;;;;;4974849;28;20027;-87
2021/05/29 12:29:40;;;;;;;0.40;0.10;;;24.50;43.40;;;;;;4973633;28;20400;-86
2021/05/29 12:32:07;;;;;;;0.80;0.43;;;24.60;43.60;;;;;;4985394;28;20484;-85
2021/05/29 12:34:33;;;;;;;0.75;0.13;;;24.50;43.60;;;;;;4973679;28;20034;-86
2021/05/29 12:37:09;;;;;;;0.70;0.15;;;24.40;43.70;;;;;;5010996;28;20027;-87
2021/05/29 12:39:52;;;;;;;0.32;0.00;;;24.40;43.70;;;;;;4993947;28;20033;-85
2021/05/29 12:42:21;;;;;;;0.38;0.00;;;24.30;43.90;;;;;;4979049;28;20026;-86
2021/05/29 12:44:52;;;;;;;0.10;0.00;;;24.20;44.00;;;;;;4978404;28;20061;-86
2021/05/29 12:47:21;;;;;;;0.17;0.10;;;24.20;44.20;;;;;;4952379;28;20100;-84
2021/05/29 12:49:48;;;;;;;0.22;0.08;;;24.20;44.20;;;;;;4953918;28;20043;-86
2021/05/29 12:52:24;;;;;;;0.22;0.03;;;24.20;44.20;;;;;;4954084;29;20038;-86
2021/05/29 12:54:51;;;;;;;1.10;0.10;;;24.20;44.20;;;;;;4954253;28;20027;-85
2021/05/29 12:57:17;;;;;;;0.63;0.15;;;24.20;44.20;;;;;;4966990;28;20044;-86
2021/05/29 12:59:43;;;;;;;0.68;0.00;;;24.30;44.20;;;;;;4953466;28;20047;-86
2021/05/29 13:07:33;;;;;;;0.45;0.08;;;24.60;44.00;;;;;;4974598;28;20384;-84